Time;durP1;ratioP1;P1;durP2;ratioP2;P2;SDS_P1;SDS_P2;PMS_P1;PMS_P2;Temp;Humidity;BMP_temperature;BMP_pressure;BME280_temperature;BME280_humidity;BME280_pressure;Samples;Min_cycle;Max_cycle;Signal;HPM_P1;HPM_P2
2021/04/09 00:00:22;;;;;;;1.50;1.02;;;20.60;29.60;;;;;;5033877;28;20871;-68
2021/04/09 00:02:48;;;;;;;1.73;1.00;;;20.60;29.60;;;;;;5033661;28;20466;-68
2021/04/09 00:05:17;;;;;;;2.53;1.20;;;20.60;29.60;;;;;;5032851;28;20959;-68
2021/04/09 00:07:42;;;;;;;1.90;1.13;;;20.60;29.70;;;;;;5033687;28;20394;-66
2021/04/09 00:10:09;;;;;;;1.57;1.10;;;20.60;29.70;;;;;;5033666;28;20391;-67
2021/04/09 00:12:36;;;;;;;1.73;1.20;;;20.60;29.60;;;;;;5033419;28;20441;-68
2021/04/09 00:15:04;;;;;;;1.85;1.02;;;20.70;29.60;;;;;;5033631;28;20432;-66
2021/04/09 00:17:29;;;;;;;2.00;1.10;;;20.70;29.40;;;;;;5033688;28;20731;-69
2021/04/09 00:19:55;;;;;;;1.55;0.93;;;20.80;29.50;;;;;;5033492;28;20397;-61
2021/04/09 00:22:20;;;;;;;1.50;0.90;;;20.90;29.40;;;;;;5033500;28;20786;-66
2021/04/09 00:24:46;;;;;;;1.50;1.00;;;20.90;29.30;;;;;;5033074;28;20498;-66
2021/04/09 00:27:12;;;;;;;1.30;0.90;;;20.90;29.30;;;;;;5032116;28;20395;-65
2021/04/09 00:29:37;;;;;;;1.55;0.93;;;21.00;29.30;;;;;;5033425;28;20395;-68
2021/04/09 00:32:03;;;;;;;1.50;1.00;;;21.00;29.20;;;;;;5033311;28;20501;-68
2021/04/09 00:34:29;;;;;;;1.70;0.90;;;21.10;29.20;;;;;;5033325;28;20434;-63
2021/04/09 00:36:54;;;;;;;1.60;1.00;;;21.00;29.10;;;;;;5032754;28;20445;-68
2021/04/09 00:39:21;;;;;;;1.53;1.00;;;21.10;29.10;;;;;;5033240;28;20740;-67
2021/04/09 00:41:47;;;;;;;1.48;1.00;;;21.10;29.10;;;;;;5033204;28;20410;-67
2021/04/09 00:44:13;;;;;;;1.70;0.90;;;21.10;29.00;;;;;;5033071;28;20395;-66
2021/04/09 00:46:39;;;;;;;1.40;0.90;;;21.10;29.00;;;;;;5032395;28;20417;-59
2021/04/09 00:49:05;;;;;;;1.65;1.00;;;21.10;29.40;;;;;;5033075;28;20385;-67
2021/04/09 00:51:32;;;;;;;1.30;0.80;;;21.10;29.00;;;;;;5033095;28;20457;-68
2021/04/09 00:53:59;;;;;;;1.65;0.90;;;21.10;28.90;;;;;;5032878;28;20446;-68
2021/04/09 00:56:28;;;;;;;1.83;0.90;;;21.10;29.00;;;;;;5032854;28;20807;-67
2021/04/09 00:59:00;;;;;;;1.27;0.90;;;21.10;28.90;;;;;;5031240;28;20395;-68
2021/04/09 01:01:26;;;;;;;1.55;0.80;;;21.10;28.90;;;;;;5032798;28;20391;-65
2021/04/09 01:03:53;;;;;;;1.50;0.93;;;21.10;28.90;;;;;;5032858;28;21037;-66
2021/04/09 01:06:19;;;;;;;1.33;0.80;;;21.10;28.90;;;;;;5032628;28;20387;-66
2021/04/09 01:08:46;;;;;;;1.30;0.82;;;21.20;28.90;;;;;;5032565;28;20398;-67
2021/04/09 01:11:11;;;;;;;1.10;0.80;;;21.20;28.90;;;;;;5032042;28;20379;-66
2021/04/09 01:13:37;;;;;;;1.50;0.90;;;21.10;28.80;;;;;;5032599;28;20437;-67
2021/04/09 01:16:09;;;;;;;1.23;0.80;;;21.10;28.70;;;;;;5032320;28;20466;-66
2021/04/09 01:18:51;;;;;;;1.35;0.90;;;21.20;28.70;;;;;;5032616;28;20850;-67
2021/04/09 01:21:41;;;;;;;2.00;1.00;;;21.10;28.70;;;;;;5046830;28;20401;-67
2021/04/09 01:24:22;;;;;;;1.48;0.77;;;21.20;28.80;;;;;;5052359;28;20466;-67
2021/04/09 01:26:53;;;;;;;1.50;0.80;;;21.10;28.80;;;;;;5051829;28;20805;-67
2021/04/09 01:29:55;;;;;;;1.60;0.90;;;21.20;28.90;;;;;;5052192;28;20377;-67
2021/04/09 01:32:21;;;;;;;1.40;0.82;;;21.20;29.00;;;;;;5052123;28;20500;-67
2021/04/09 01:34:52;;;;;;;1.55;0.80;;;21.10;28.90;;;;;;5051735;28;20389;-67
2021/04/09 01:37:24;;;;;;;1.67;0.80;;;21.20;28.90;;;;;;5052127;28;20381;-66
2021/04/09 01:40:19;;;;;;;1.30;0.77;;;21.20;28.90;;;;;;5052171;28;20370;-66
2021/04/09 01:42:54;;;;;;;1.52;0.90;;;21.20;28.80;;;;;;5050371;28;20425;-66
2021/04/09 01:45:23;;;;;;;1.20;0.73;;;21.20;28.90;;;;;;5051762;28;20413;-67
2021/04/09 01:47:51;;;;;;;1.67;0.90;;;21.20;28.90;;;;;;5051963;28;20389;-63
2021/04/09 01:50:18;;;;;;;1.38;0.80;;;21.20;28.80;;;;;;5051695;28;21587;-65
2021/04/09 01:52:49;;;;;;;1.40;0.80;;;21.20;28.80;;;;;;5051352;28;20405;-66
2021/04/09 01:55:17;;;;;;;1.98;0.77;;;21.10;28.70;;;;;;5051771;28;20512;-67
2021/04/09 01:57:44;;;;;;;1.30;0.70;;;21.10;28.80;;;;;;5051830;28;20427;-67
2021/04/09 02:00:17;;;;;;;1.30;0.85;;;21.20;28.80;;;;;;5051700;28;20381;-66
2021/04/09 02:02:45;;;;;;;0.93;0.70;;;21.10;28.80;;;;;;5051341;28;20980;-66
2021/04/09 02:05:17;;;;;;;1.37;0.70;;;21.10;28.70;;;;;;5051705;28;20477;-67
2021/04/09 02:07:45;;;;;;;1.20;0.80;;;21.10;28.80;;;;;;5051685;28;20381;-66
2021/04/09 02:10:13;;;;;;;1.30;0.77;;;21.10;28.70;;;;;;5051631;28;20385;-66
2021/04/09 02:12:43;;;;;;;1.20;0.80;;;21.10;28.70;;;;;;5051336;28;20869;-67
2021/04/09 02:15:11;;;;;;;1.23;0.70;;;21.10;28.80;;;;;;5051560;28;20484;-67
2021/04/09 02:17:38;;;;;;;1.33;0.80;;;21.00;28.90;;;;;;5051562;28;20388;-66
2021/04/09 02:20:10;;;;;;;2.03;0.90;;;20.90;28.90;;;;;;5051476;28;20389;-68
2021/04/09 02:22:36;;;;;;;1.67;0.80;;;20.90;29.00;;;;;;5051367;28;20417;-67
2021/04/09 02:25:02;;;;;;;1.02;0.60;;;20.90;29.10;;;;;;5051161;28;20393;-67
2021/04/09 02:27:28;;;;;;;1.10;0.80;;;20.80;29.20;;;;;;5050019;28;20472;-68
2021/04/09 02:29:54;;;;;;;1.75;1.00;;;20.80;28.80;;;;;;5051049;28;20439;-67
2021/04/09 02:32:22;;;;;;;1.90;0.98;;;20.70;28.60;;;;;;5051260;28;20505;-67
2021/04/09 02:34:49;;;;;;;1.50;1.05;;;20.70;28.50;;;;;;5050992;28;20392;-67
2021/04/09 02:37:16;;;;;;;1.85;1.17;;;20.60;28.40;;;;;;5051211;28;20897;-66
2021/04/09 02:39:45;;;;;;;1.70;1.00;;;20.50;28.70;;;;;;5051304;28;20446;-67
2021/04/09 02:42:12;;;;;;;1.70;1.10;;;20.40;28.60;;;;;;5049911;28;20412;-67
2021/04/09 02:44:38;;;;;;;1.27;1.00;;;20.40;29.00;;;;;;5050988;28;20886;-63
2021/04/09 02:47:08;;;;;;;1.97;1.23;;;20.30;28.70;;;;;;5050945;28;20392;-67
2021/04/09 02:49:42;;;;;;;1.80;0.93;;;20.20;28.80;;;;;;5050657;28;20458;-66
2021/04/09 02:52:22;;;;;;;1.23;0.90;;;20.20;28.80;;;;;;5051244;28;20427;-67
2021/04/09 02:54:52;;;;;;;1.40;1.00;;;20.20;29.00;;;;;;5050719;28;20436;-66
2021/04/09 02:57:23;;;;;;;1.65;1.20;;;20.20;29.10;;;;;;5051126;28;20385;-66
2021/04/09 02:59:54;;;;;;;1.37;0.90;;;20.20;29.00;;;;;;5051131;28;20401;-67
2021/04/09 03:02:22;;;;;;;1.50;1.05;;;20.10;29.30;;;;;;5051122;28;20381;-67
2021/04/09 03:04:48;;;;;;;1.52;1.05;;;20.00;29.10;;;;;;5050586;28;20412;-66
2021/04/09 03:07:16;;;;;;;1.87;0.90;;;20.00;29.20;;;;;;5050942;28;20865;-66
2021/04/09 03:09:41;;;;;;;2.33;1.20;;;20.00;29.30;;;;;;5041857;28;20406;-66
2021/04/09 03:12:14;;;;;;;2.13;1.00;;;20.00;29.30;;;;;;5036905;28;20439;-66
2021/04/09 03:14:42;;;;;;;1.60;1.20;;;20.00;29.80;;;;;;5030796;28;20410;-66
2021/04/09 03:17:16;;;;;;;2.33;1.20;;;20.00;29.50;;;;;;5030656;28;20383;-66
2021/04/09 03:19:41;;;;;;;1.40;1.00;;;19.90;29.80;;;;;;5030949;28;20891;-66
2021/04/09 03:22:11;;;;;;;2.13;1.17;;;20.00;29.70;;;;;;5031497;28;20466;-65
2021/04/09 03:24:37;;;;;;;1.92;1.10;;;20.00;30.00;;;;;;5030924;28;20446;-66
2021/04/09 03:27:05;;;;;;;1.92;1.02;;;20.00;30.80;;;;;;5030359;28;20442;-67
2021/04/09 03:29:30;;;;;;;3.08;1.05;;;20.00;30.50;;;;;;5030895;28;20391;-66
2021/04/09 03:31:56;;;;;;;3.38;1.02;;;20.00;30.30;;;;;;5030800;28;20387;-65
2021/04/09 03:34:22;;;;;;;2.60;1.20;;;20.00;30.50;;;;;;5030777;28;20427;-65
2021/04/09 03:36:48;;;;;;;3.70;1.30;;;20.00;31.40;;;;;;5030419;28;20383;-66
2021/04/09 03:39:13;;;;;;;6.27;1.10;;;19.90;31.20;;;;;;5030803;28;20446;-66
2021/04/09 03:41:39;;;;;;;2.22;1.17;;;20.00;30.70;;;;;;5033472;28;20820;-66
2021/04/09 03:44:05;;;;;;;3.00;1.10;;;20.00;30.10;;;;;;5034200;28;20857;-66
2021/04/09 03:46:30;;;;;;;2.03;1.17;;;19.90;31.00;;;;;;5034141;28;20493;-66
2021/04/09 03:48:56;;;;;;;2.03;0.98;;;19.90;30.50;;;;;;5033678;28;20391;-65
2021/04/09 03:51:21;;;;;;;1.70;0.80;;;19.90;31.20;;;;;;5034138;28;20387;-66
2021/04/09 03:53:47;;;;;;;2.67;1.10;;;20.00;31.40;;;;;;5034030;28;20777;-65
2021/04/09 03:56:13;;;;;;;1.70;1.10;;;20.00;31.20;;;;;;5033998;28;20418;-65
2021/04/09 03:58:38;;;;;;;2.28;1.00;;;20.00;31.00;;;;;;5034173;28;20445;-66
2021/04/09 04:01:04;;;;;;;1.90;1.00;;;20.00;31.00;;;;;;5033549;28;20383;-63
2021/04/09 04:03:30;;;;;;;1.73;0.80;;;20.00;30.30;;;;;;5033957;28;20453;-66
2021/04/09 04:05:55;;;;;;;2.77;0.90;;;19.90;30.10;;;;;;5033884;28;20441;-66
2021/04/09 04:08:21;;;;;;;1.52;0.90;;;19.90;30.40;;;;;;5033845;28;20402;-66
2021/04/09 04:10:46;;;;;;;2.57;0.90;;;19.90;30.30;;;;;;5033745;28;20399;-68
2021/04/09 04:13:12;;;;;;;1.50;0.75;;;19.90;30.50;;;;;;5033574;28;20414;-65
2021/04/09 04:15:38;;;;;;;2.00;1.10;;;19.80;31.00;;;;;;5033801;28;20390;-66
2021/04/09 04:18:03;;;;;;;3.00;0.90;;;19.80;30.40;;;;;;5033638;28;20394;-66
2021/04/09 04:20:29;;;;;;;2.85;1.00;;;19.80;30.80;;;;;;5048967;28;20421;-66
2021/04/09 04:22:55;;;;;;;2.67;1.10;;;19.80;30.80;;;;;;5033050;28;20396;-63
2021/04/09 04:25:20;;;;;;;4.30;1.20;;;19.80;31.80;;;;;;5032192;28;20391;-65
2021/04/09 04:27:46;;;;;;;2.20;0.90;;;19.70;31.00;;;;;;5033524;28;20876;-61
2021/04/09 04:30:13;;;;;;;2.05;0.90;;;19.70;31.90;;;;;;5033257;28;20496;-65
2021/04/09 04:32:38;;;;;;;2.30;0.93;;;19.70;31.70;;;;;;5033330;28;20411;-65
2021/04/09 04:35:05;;;;;;;1.80;1.10;;;19.70;31.20;;;;;;5032867;28;20804;-67
2021/04/09 04:37:31;;;;;;;1.58;1.00;;;19.70;31.70;;;;;;5033259;28;20474;-66
2021/04/09 04:39:56;;;;;;;3.27;0.90;;;19.70;31.90;;;;;;5033176;28;20498;-63
2021/04/09 04:42:22;;;;;;;1.38;0.82;;;19.70;31.50;;;;;;5033049;28;20406;-63
2021/04/09 04:44:47;;;;;;;1.53;0.90;;;19.70;31.50;;;;;;5048076;28;20415;-61
2021/04/09 04:47:13;;;;;;;2.10;0.90;;;19.70;31.00;;;;;;5032912;28;20410;-64
2021/04/09 04:49:39;;;;;;;2.23;1.07;;;19.70;31.00;;;;;;5051344;28;20389;-66
2021/04/09 04:52:05;;;;;;;2.13;0.93;;;19.70;31.00;;;;;;5052454;28;20390;-61
2021/04/09 04:54:30;;;;;;;2.40;0.80;;;19.70;30.30;;;;;;5052955;28;20490;-66
2021/04/09 04:56:56;;;;;;;4.13;1.08;;;19.60;30.70;;;;;;5051975;28;20390;-62
2021/04/09 04:59:21;;;;;;;3.63;0.93;;;19.60;30.40;;;;;;5052822;28;20439;-65
2021/04/09 05:01:47;;;;;;;1.63;0.90;;;19.60;30.20;;;;;;5052794;28;20417;-66
2021/04/09 05:04:13;;;;;;;1.77;0.80;;;19.60;30.30;;;;;;5052698;28;20519;-66
2021/04/09 05:06:39;;;;;;;2.50;1.07;;;19.60;30.50;;;;;;5052727;28;20393;-66
2021/04/09 05:09:06;;;;;;;2.17;0.90;;;19.60;30.00;;;;;;5050797;28;21426;-66
2021/04/09 05:11:32;;;;;;;2.38;1.00;;;19.60;29.80;;;;;;5051461;28;20408;-66
2021/04/09 05:13:57;;;;;;;1.92;0.85;;;19.50;29.70;;;;;;5052354;28;20916;-65
2021/04/09 05:16:23;;;;;;;1.50;0.90;;;19.50;29.60;;;;;;5052567;28;20385;-66
2021/04/09 05:18:48;;;;;;;2.78;0.80;;;19.50;29.80;;;;;;5052229;28;20535;-66
2021/04/09 05:21:14;;;;;;;2.13;1.10;;;19.50;29.70;;;;;;5052164;28;20386;-67
2021/04/09 05:23:40;;;;;;;2.38;1.00;;;19.50;29.40;;;;;;5052153;28;20900;-66
2021/04/09 05:26:05;;;;;;;2.23;0.97;;;19.50;29.50;;;;;;5052002;28;20381;-66
2021/04/09 05:28:31;;;;;;;1.42;0.90;;;19.40;29.50;;;;;;5052327;28;20424;-66
2021/04/09 05:30:57;;;;;;;1.80;0.80;;;19.40;29.60;;;;;;5051587;28;20477;-64
2021/04/09 05:33:23;;;;;;;1.50;0.80;;;19.40;29.70;;;;;;5051758;28;20789;-65
2021/04/09 05:35:49;;;;;;;2.20;0.90;;;19.40;29.70;;;;;;5050884;28;20801;-67
2021/04/09 05:38:14;;;;;;;1.70;1.00;;;19.40;29.40;;;;;;5052585;28;20436;-64
2021/04/09 05:40:40;;;;;;;2.50;1.00;;;19.40;29.50;;;;;;5052207;28;20739;-62
2021/04/09 05:43:07;;;;;;;3.67;1.00;;;19.40;29.60;;;;;;5048149;28;21401;-65
2021/04/09 05:45:33;;;;;;;2.50;1.00;;;19.50;29.80;;;;;;5040199;28;20418;-66
2021/04/09 05:48:05;;;;;;;1.60;0.90;;;19.50;30.00;;;;;;5042427;28;20396;-60
2021/04/09 05:50:33;;;;;;;2.10;1.10;;;19.50;29.70;;;;;;5040681;28;20786;-66
2021/04/09 05:52:59;;;;;;;3.15;1.08;;;19.50;29.70;;;;;;5039334;28;20436;-63
2021/04/09 05:55:25;;;;;;;1.87;1.10;;;19.50;30.00;;;;;;5037199;28;20827;-64
2021/04/09 05:57:51;;;;;;;1.70;0.90;;;19.50;29.80;;;;;;5030713;28;20426;-65
2021/04/09 06:00:17;;;;;;;2.90;1.02;;;19.50;30.00;;;;;;5031820;28;20426;-66
2021/04/09 06:02:42;;;;;;;2.33;1.00;;;19.40;29.60;;;;;;5031190;28;20493;-63
2021/04/09 06:05:09;;;;;;;2.13;0.90;;;19.40;29.90;;;;;;5031096;28;20402;-66
2021/04/09 06:07:34;;;;;;;1.90;0.90;;;19.40;29.90;;;;;;5031833;28;20387;-66
2021/04/09 06:10:00;;;;;;;2.53;0.85;;;19.40;30.10;;;;;;5031586;28;20391;-65
2021/04/09 06:12:26;;;;;;;1.83;0.90;;;19.40;30.30;;;;;;5031592;28;20870;-66
2021/04/09 06:14:52;;;;;;;1.60;0.80;;;19.40;29.90;;;;;;5031427;28;20448;-64
2021/04/09 06:17:19;;;;;;;1.70;0.90;;;19.40;29.80;;;;;;5031445;28;20375;-64
2021/04/09 06:19:47;;;;;;;1.70;1.10;;;19.40;29.70;;;;;;5031513;28;20395;-65
2021/04/09 06:22:14;;;;;;;1.77;0.85;;;19.40;29.50;;;;;;5031446;28;20395;-66
2021/04/09 06:24:40;;;;;;;2.80;0.90;;;19.40;29.80;;;;;;5031473;28;20391;-63
2021/04/09 06:27:07;;;;;;;1.92;0.90;;;19.40;29.70;;;;;;5031031;28;20938;-58
2021/04/09 06:29:33;;;;;;;1.95;1.00;;;19.40;29.70;;;;;;5035460;28;20410;-57
2021/04/09 06:31:58;;;;;;;1.90;0.80;;;19.40;29.40;;;;;;5051142;28;20412;-57
2021/04/09 06:34:24;;;;;;;1.90;1.00;;;19.40;29.60;;;;;;5050820;28;20441;-57
2021/04/09 06:36:50;;;;;;;2.00;0.90;;;19.40;29.10;;;;;;5050774;28;20382;-57
2021/04/09 06:39:15;;;;;;;1.85;1.08;;;19.40;29.60;;;;;;5049404;28;20796;-57
2021/04/09 06:41:41;;;;;;;1.63;0.90;;;19.40;28.80;;;;;;5051109;28;20388;-58
2021/04/09 06:44:07;;;;;;;1.73;0.80;;;19.40;29.60;;;;;;5051081;28;20382;-57
2021/04/09 06:46:33;;;;;;;2.60;0.90;;;19.40;29.60;;;;;;5051022;28;20439;-57
2021/04/09 06:48:59;;;;;;;1.40;0.90;;;19.40;29.30;;;;;;5050557;28;20460;-57
2021/04/09 06:51:25;;;;;;;1.60;0.90;;;19.40;29.20;;;;;;5051133;28;20488;-57
2021/04/09 06:53:52;;;;;;;1.58;0.75;;;19.50;29.20;;;;;;5051095;28;20428;-57
2021/04/09 06:56:20;;;;;;;2.35;1.00;;;19.50;29.20;;;;;;5051076;28;20393;-57
2021/04/09 06:58:47;;;;;;;2.40;1.00;;;19.50;29.00;;;;;;5050977;28;20900;-58
2021/04/09 07:01:15;;;;;;;1.45;0.85;;;19.50;29.00;;;;;;5050536;28;20393;-58
2021/04/09 07:03:41;;;;;;;2.13;1.00;;;19.40;29.40;;;;;;5051041;28;20531;-57
2021/04/09 07:06:06;;;;;;;1.53;0.80;;;19.50;29.20;;;;;;5050783;28;20836;-57
2021/04/09 07:08:42;;;;;;;1.67;0.80;;;19.50;29.40;;;;;;5050936;28;20397;-57
2021/04/09 07:11:09;;;;;;;1.47;0.87;;;19.50;28.90;;;;;;5050478;28;20374;-57
2021/04/09 07:13:51;;;;;;;1.90;0.90;;;19.50;29.50;;;;;;5050884;28;20437;-57
2021/04/09 07:16:17;;;;;;;1.38;1.00;;;19.50;29.40;;;;;;5054707;28;20366;-57
2021/04/09 07:18:47;;;;;;;1.50;1.00;;;19.50;29.20;;;;;;5054718;28;20401;-58
2021/04/09 07:21:27;;;;;;;1.48;0.85;;;19.60;29.10;;;;;;5054233;28;20398;-57
2021/04/09 07:24:16;;;;;;;2.33;0.93;;;19.50;29.50;;;;;;5054662;28;20401;-57
2021/04/09 07:26:47;;;;;;;1.70;0.82;;;19.50;29.50;;;;;;5053447;28;20408;-58
2021/04/09 07:29:31;;;;;;;1.60;0.85;;;19.60;29.70;;;;;;5069468;28;20389;-57
2021/04/09 07:32:23;;;;;;;1.45;0.75;;;19.60;29.30;;;;;;5054673;28;20397;-57
2021/04/09 07:34:53;;;;;;;2.67;0.80;;;19.60;29.50;;;;;;5054491;28;20401;-57
2021/04/09 07:37:23;;;;;;;2.17;0.80;;;19.60;29.40;;;;;;5053930;28;20389;-57
2021/04/09 07:39:59;;;;;;;1.50;0.90;;;19.70;29.20;;;;;;5054358;28;20385;-57
2021/04/09 07:42:35;;;;;;;1.70;0.90;;;19.60;29.10;;;;;;5069615;28;20394;-57
2021/04/09 07:45:11;;;;;;;1.20;0.80;;;19.70;29.20;;;;;;5053659;28;20753;-56
2021/04/09 07:47:39;;;;;;;1.85;0.90;;;19.70;29.00;;;;;;5054229;28;20400;-57
2021/04/09 07:50:11;;;;;;;1.63;0.90;;;19.60;28.90;;;;;;5054071;28;20397;-57
2021/04/09 07:52:39;;;;;;;1.27;0.70;;;19.70;29.20;;;;;;5053679;28;20405;-57
2021/04/09 07:55:15;;;;;;;1.52;0.85;;;19.70;29.30;;;;;;5053040;28;20400;-57
2021/04/09 07:57:41;;;;;;;1.55;0.90;;;19.70;29.30;;;;;;5052591;28;20381;-57
2021/04/09 08:00:28;;;;;;;1.47;0.80;;;19.70;29.10;;;;;;5053920;28;20390;-56
2021/04/09 08:02:55;;;;;;;1.20;0.70;;;19.80;29.40;;;;;;5053709;28;20385;-56
2021/04/09 08:05:23;;;;;;;1.50;0.88;;;19.80;29.20;;;;;;5052402;28;20393;-56
2021/04/09 08:07:49;;;;;;;1.50;0.70;;;19.80;29.20;;;;;;5053832;28;20381;-56
2021/04/09 08:10:17;;;;;;;1.27;0.90;;;19.80;29.40;;;;;;5053968;28;20386;-56
2021/04/09 08:12:49;;;;;;;1.90;0.80;;;19.80;29.60;;;;;;5053655;28;20438;-56
2021/04/09 08:15:27;;;;;;;1.20;0.57;;;19.70;29.70;;;;;;5053272;28;20842;-57
2021/04/09 08:18:13;;;;;;;1.20;0.70;;;19.80;29.60;;;;;;5053582;28;20420;-57
2021/04/09 08:20:42;;;;;;;0.90;0.60;;;19.80;29.60;;;;;;5053640;28;20381;-58
2021/04/09 08:23:10;;;;;;;1.25;0.65;;;19.90;29.60;;;;;;5052587;28;20547;-56
2021/04/09 08:25:37;;;;;;;1.30;0.45;;;19.90;29.60;;;;;;5052723;28;20396;-56
2021/04/09 08:28:08;;;;;;;1.33;0.60;;;19.90;29.60;;;;;;5052924;28;20393;-56
2021/04/09 08:30:37;;;;;;;1.63;0.68;;;19.90;29.50;;;;;;5052164;28;20389;-56
2021/04/09 08:33:04;;;;;;;1.10;0.60;;;20.00;29.40;;;;;;5052808;28;20397;-56
2021/04/09 08:35:30;;;;;;;1.00;0.68;;;20.10;29.30;;;;;;5053408;28;20385;-56
2021/04/09 08:38:02;;;;;;;1.13;0.50;;;20.20;29.20;;;;;;5053075;28;20400;-56
2021/04/09 08:40:29;;;;;;;1.02;0.60;;;20.30;29.10;;;;;;5052711;28;20389;-56
2021/04/09 08:42:55;;;;;;;1.02;0.60;;;20.40;29.00;;;;;;5052711;28;20389;-56
2021/04/09 08:45:21;;;;;;;1.50;0.57;;;20.40;28.90;;;;;;5052745;28;20410;-56
2021/04/09 08:47:52;;;;;;;1.42;0.70;;;20.50;28.70;;;;;;5053207;28;20401;-56
2021/04/09 08:50:18;;;;;;;1.00;0.50;;;20.50;28.60;;;;;;5053029;28;20432;-57
2021/04/09 08:52:46;;;;;;;1.30;0.60;;;20.50;28.50;;;;;;5052903;28;20449;-57
2021/04/09 08:55:13;;;;;;;0.85;0.55;;;20.60;28.40;;;;;;5052543;28;20385;-56
2021/04/09 08:57:42;;;;;;;0.90;0.50;;;20.60;28.60;;;;;;5053075;28;20434;-57
2021/04/09 09:00:23;;;;;;;1.85;0.70;;;20.70;28.50;;;;;;5052916;28;20438;-57
2021/04/09 09:02:55;;;;;;;1.05;0.60;;;20.70;28.40;;;;;;5052808;28;20378;-58
2021/04/09 09:05:23;;;;;;;1.60;0.70;;;20.70;28.60;;;;;;5052065;28;20416;-60
2021/04/09 09:08:06;;;;;;;1.60;0.70;;;20.80;29.20;;;;;;5052719;28;20962;-57
2021/04/09 09:10:31;;;;;;;1.00;0.65;;;20.80;28.70;;;;;;5052081;28;20393;-56
2021/04/09 09:13:03;;;;;;;1.30;0.57;;;20.80;28.50;;;;;;5051879;28;20919;-57
2021/04/09 09:15:44;;;;;;;0.90;0.57;;;20.80;28.60;;;;;;5052442;28;20397;-57
2021/04/09 09:18:31;;;;;;;1.60;0.80;;;20.90;28.50;;;;;;5052476;28;20392;-56
2021/04/09 09:21:07;;;;;;;1.30;0.60;;;20.90;28.40;;;;;;5045432;28;20433;-56
2021/04/09 09:23:52;;;;;;;0.93;0.60;;;20.90;28.40;;;;;;5052395;28;20397;-56
2021/04/09 09:26:38;;;;;;;2.33;0.70;;;20.90;28.30;;;;;;5052098;28;20382;-56
2021/04/09 09:29:22;;;;;;;1.20;0.60;;;21.00;28.30;;;;;;5051868;28;20382;-56
2021/04/09 09:32:04;;;;;;;1.02;0.60;;;21.00;28.20;;;;;;5051041;28;20846;-56
2021/04/09 09:34:33;;;;;;;1.08;0.60;;;21.00;28.20;;;;;;5052348;28;20444;-56
2021/04/09 09:37:14;;;;;;;0.93;0.52;;;21.00;28.20;;;;;;5050560;28;20450;-56
2021/04/09 09:39:43;;;;;;;0.98;0.50;;;21.00;28.10;;;;;;5052041;28;20385;-57
2021/04/09 09:42:13;;;;;;;2.45;0.70;;;21.10;28.00;;;;;;5051441;28;20417;-57
2021/04/09 09:44:39;;;;;;;2.78;0.70;;;21.60;29.40;;;;;;5051702;28;20781;-57
2021/04/09 09:47:34;;;;;;;2.40;0.80;;;21.80;29.00;;;;;;5050182;28;20413;-57
2021/04/09 09:52:48;;;;;;;3.17;0.80;;;22.10;28.40;;;;;;5051864;28;20400;-57
2021/04/09 09:55:17;;;;;;;3.75;0.70;;;22.20;28.30;;;;;;5051288;28;20484;-58
2021/04/09 09:57:54;;;;;;;3.70;0.80;;;22.20;28.30;;;;;;5051793;28;20377;-57
2021/04/09 10:00:56;;;;;;;2.75;0.80;;;22.30;28.30;;;;;;5051801;28;20443;-58
2021/04/09 10:03:47;;;;;;;2.45;0.73;;;22.40;28.60;;;;;;5029331;28;20393;-58
2021/04/09 10:06:14;;;;;;;3.05;0.90;;;22.50;28.30;;;;;;5049523;28;20400;-57
2021/04/09 10:08:43;;;;;;;3.72;0.80;;;22.60;28.70;;;;;;5051166;28;20423;-57
2021/04/09 10:11:20;;;;;;;3.80;0.75;;;22.60;28.80;;;;;;5051074;28;20789;-57
2021/04/09 10:13:47;;;;;;;4.33;0.80;;;22.70;29.00;;;;;;5050782;28;20423;-57
2021/04/09 10:16:18;;;;;;;4.18;0.80;;;22.70;28.90;;;;;;5051383;28;20385;-57
2021/04/09 10:18:50;;;;;;;2.97;1.13;;;22.90;29.20;;;;;;5051527;28;20484;-57
2021/04/09 10:21:22;;;;;;;2.92;0.80;;;22.90;29.30;;;;;;5050875;28;20749;-57
2021/04/09 10:24:08;;;;;;;3.73;0.80;;;23.00;29.60;;;;;;5051746;28;20842;-59
2021/04/09 10:26:35;;;;;;;2.65;0.70;;;23.00;29.90;;;;;;5049772;28;20388;-59
2021/04/09 10:29:01;;;;;;;3.65;0.80;;;23.00;29.70;;;;;;5050242;28;20385;-57
2021/04/09 10:31:27;;;;;;;3.03;0.90;;;23.00;29.40;;;;;;5051090;28;20522;-58
2021/04/09 10:33:55;;;;;;;2.55;0.77;;;23.10;29.40;;;;;;5051007;28;20416;-58
2021/04/09 10:36:26;;;;;;;3.08;0.73;;;23.10;28.90;;;;;;5048343;28;20410;-58
2021/04/09 10:38:58;;;;;;;2.45;0.80;;;23.10;29.40;;;;;;5031134;28;20875;-57
2021/04/09 10:41:32;;;;;;;2.23;0.63;;;23.20;29.40;;;;;;5030833;28;20522;-58
2021/04/09 10:44:04;;;;;;;1.98;0.70;;;23.30;29.70;;;;;;5031481;28;20391;-58
2021/04/09 10:46:35;;;;;;;1.48;0.60;;;23.30;29.50;;;;;;5030950;28;20763;-59
2021/04/09 10:49:06;;;;;;;2.13;0.73;;;23.40;29.40;;;;;;5030214;28;20399;-58
2021/04/09 10:51:35;;;;;;;5.15;0.88;;;23.40;29.60;;;;;;5035120;28;20379;-59
2021/04/09 10:54:01;;;;;;;3.17;0.77;;;23.50;29.20;;;;;;5035102;28;21013;-59
2021/04/09 10:56:27;;;;;;;3.50;0.63;;;23.50;29.20;;;;;;5035109;28;20391;-57
2021/04/09 10:58:53;;;;;;;4.60;0.80;;;23.60;29.20;;;;;;5035122;28;20398;-58
2021/04/09 11:01:26;;;;;;;3.25;0.75;;;23.60;29.60;;;;;;5034514;28;20391;-58
2021/04/09 11:03:53;;;;;;;4.88;0.82;;;23.70;29.20;;;;;;5034906;28;20824;-57
2021/04/09 11:06:22;;;;;;;4.63;0.80;;;23.80;29.40;;;;;;5033616;28;20756;-57
2021/04/09 11:08:57;;;;;;;2.70;0.70;;;23.90;29.30;;;;;;5034874;28;20417;-57
2021/04/09 11:11:29;;;;;;;2.47;0.75;;;24.00;29.60;;;;;;5034502;28;20727;-57
2021/04/09 11:14:10;;;;;;;3.22;0.60;;;24.10;29.50;;;;;;5034555;28;20736;-58
2021/04/09 11:16:51;;;;;;;3.67;0.73;;;24.10;29.60;;;;;;5034758;28;20383;-57
2021/04/09 11:19:33;;;;;;;2.70;0.63;;;24.20;29.70;;;;;;5034202;28;20387;-57
2021/04/09 11:22:00;;;;;;;5.15;0.80;;;24.30;29.20;;;;;;5033429;28;20883;-57
2021/04/09 11:24:39;;;;;;;3.00;0.70;;;24.30;29.30;;;;;;5034658;28;20477;-57
2021/04/09 11:27:19;;;;;;;2.80;0.70;;;24.50;29.40;;;;;;5034322;28;20387;-57
2021/04/09 11:29:45;;;;;;;4.80;0.60;;;24.50;29.30;;;;;;5034586;28;20382;-59
2021/04/09 11:32:18;;;;;;;3.88;0.68;;;24.60;29.20;;;;;;5034209;28;20390;-58
2021/04/09 11:34:46;;;;;;;2.83;0.50;;;24.70;29.30;;;;;;5033037;28;20469;-57
2021/04/09 11:37:13;;;;;;;2.53;0.65;;;24.70;29.20;;;;;;5033945;28;20390;-57
2021/04/09 11:39:56;;;;;;;2.28;0.63;;;24.80;29.10;;;;;;5034456;28;20387;-57
2021/04/09 11:42:34;;;;;;;4.00;0.50;;;24.90;29.00;;;;;;5034411;28;20417;-57
2021/04/09 11:45:08;;;;;;;1.83;0.60;;;25.00;28.90;;;;;;5034017;28;20399;-57
2021/04/09 11:47:40;;;;;;;1.77;0.60;;;25.10;28.80;;;;;;5034087;28;20394;-57
2021/04/09 11:50:10;;;;;;;1.60;0.40;;;25.20;28.70;;;;;;5034042;28;20983;-57
2021/04/09 11:53:01;;;;;;;3.55;0.60;;;25.30;28.60;;;;;;5034176;28;20737;-56
2021/04/09 11:55:38;;;;;;;2.50;0.65;;;25.40;28.50;;;;;;5033456;28;20398;-57
2021/04/09 11:58:15;;;;;;;1.42;0.52;;;25.40;28.40;;;;;;5034055;28;20386;-57
2021/04/09 12:00:40;;;;;;;1.38;0.50;;;25.30;28.20;;;;;;5031864;28;20404;-58
2021/04/09 12:03:09;;;;;;;0.77;0.43;;;25.40;28.20;;;;;;5033461;28;20395;-57
2021/04/09 12:05:36;;;;;;;2.42;0.43;;;25.40;28.10;;;;;;5033770;28;20865;-57
2021/04/09 12:08:03;;;;;;;0.90;0.50;;;25.40;28.00;;;;;;5033858;28;20387;-58
2021/04/09 12:10:31;;;;;;;1.50;0.50;;;25.40;28.00;;;;;;5033801;28;20395;-58
2021/04/09 12:12:57;;;;;;;1.42;0.50;;;25.40;28.00;;;;;;5032391;28;20419;-58
2021/04/09 12:15:24;;;;;;;1.20;0.40;;;25.40;28.00;;;;;;5033337;28;20830;-57
2021/04/09 12:17:51;;;;;;;1.23;0.47;;;25.30;27.90;;;;;;5033873;28;20482;-57
2021/04/09 12:20:23;;;;;;;1.52;0.50;;;25.30;27.90;;;;;;5033803;28;20417;-57
2021/04/09 12:22:50;;;;;;;1.63;0.50;;;25.30;27.80;;;;;;5033646;28;20406;-57
2021/04/09 12:25:17;;;;;;;1.15;0.50;;;25.20;27.80;;;;;;5032673;28;20409;-57
2021/04/09 12:27:43;;;;;;;0.90;0.45;;;25.20;27.70;;;;;;5033564;28;20466;-58
2021/04/09 12:30:11;;;;;;;1.50;0.50;;;25.20;27.60;;;;;;5032889;28;20945;-57
2021/04/09 12:32:37;;;;;;;2.05;0.43;;;25.10;27.70;;;;;;5032892;28;20398;-57
2021/04/09 12:35:04;;;;;;;3.20;0.60;;;25.10;27.50;;;;;;5031975;28;20403;-57
2021/04/09 12:37:30;;;;;;;3.47;0.75;;;25.00;27.40;;;;;;5032856;28;20402;-57
2021/04/09 12:39:55;;;;;;;3.42;0.57;;;25.00;27.20;;;;;;5033258;28;20391;-57
2021/04/09 12:42:21;;;;;;;5.30;0.70;;;25.00;27.50;;;;;;5032935;28;20398;-64
2021/04/09 12:44:47;;;;;;;4.78;0.60;;;24.90;27.10;;;;;;5033048;28;20383;-58
2021/04/09 12:47:13;;;;;;;2.90;0.60;;;25.00;27.00;;;;;;5032958;28;20875;-57
2021/04/09 12:49:39;;;;;;;4.70;0.73;;;25.00;26.40;;;;;;5031677;28;20470;-57
2021/04/09 12:52:06;;;;;;;4.15;0.60;;;24.90;26.60;;;;;;5033007;28;20399;-57
2021/04/09 12:54:32;;;;;;;4.72;0.70;;;25.00;27.00;;;;;;5033007;28;20422;-57
2021/04/09 12:56:58;;;;;;;3.33;0.57;;;25.10;27.00;;;;;;5032900;28;20402;-57
2021/04/09 12:59:23;;;;;;;3.40;0.60;;;25.10;27.00;;;;;;5032434;28;20875;-57
2021/04/09 13:01:49;;;;;;;2.83;0.60;;;25.10;27.50;;;;;;5032961;28;20399;-57